Time;durP1;ratioP1;P1;durP2;ratioP2;P2;SDS_P1;SDS_P2;PMS_P1;PMS_P2;Temp;Humidity;BMP_temperature;BMP_pressure;BME280_temperature;BME280_humidity;BME280_pressure;Samples;Min_cycle;Max_cycle;Signal;HPM_P1;HPM_P2
2022/12/29 00:01:29;;;;;;;3.22;1.70;;;11.00;99.90;;;;;;5011091;28;20044;-62
2022/12/29 00:03:55;;;;;;;2.38;1.70;;;11.00;99.90;;;;;;5030495;28;20053;-61
2022/12/29 00:06:20;;;;;;;2.15;1.60;;;11.00;99.90;;;;;;5021438;28;20057;-61
2022/12/29 00:08:46;;;;;;;2.38;1.50;;;11.00;99.90;;;;;;5022027;28;20068;-61
2022/12/29 00:11:14;;;;;;;3.30;1.10;;;11.00;99.90;;;;;;5024394;28;20030;-62
2022/12/29 00:16:25;;;;;;;1.10;0.80;;;11.00;99.90;;;;;;5034934;28;20094;-61
2022/12/29 00:18:51;;;;;;;3.13;0.70;;;11.10;99.90;;;;;;5047364;28;20051;-61
2022/12/29 00:35:33;;;;;;;1.70;1.10;;;11.40;99.90;;;;;;5045924;28;20043;-61
2022/12/29 00:46:19;;;;;;;2.55;1.58;;;11.10;99.90;;;;;;5041079;28;20514;-61
2022/12/29 00:51:29;;;;;;;3.40;1.00;;;11.20;99.90;;;;;;5045347;28;20059;-61
2022/12/29 00:53:55;;;;;;;1.10;0.80;;;11.00;99.90;;;;;;5043417;28;20559;-61
2022/12/29 00:56:21;;;;;;;0.88;0.60;;;11.00;99.90;;;;;;5043612;28;20136;-61
2022/12/29 00:58:46;;;;;;;0.70;0.68;;;11.10;99.90;;;;;;5045346;28;20033;-61
2022/12/29 01:01:12;;;;;;;0.98;0.70;;;11.10;99.90;;;;;;5029842;28;20124;-61
2022/12/29 01:03:37;;;;;;;2.90;1.38;;;11.10;99.90;;;;;;5037008;28;20116;-61
2022/12/29 01:06:05;;;;;;;0.70;0.70;;;11.20;99.90;;;;;;5037252;28;20037;-61
2022/12/29 01:08:31;;;;;;;1.10;0.77;;;11.20;99.90;;;;;;5028461;28;20040;-62
2022/12/29 01:11:02;;;;;;;0.80;0.70;;;11.20;99.90;;;;;;5033002;28;20033;-61
2022/12/29 01:13:28;;;;;;;0.68;0.68;;;11.40;99.90;;;;;;5032673;28;20476;-61
2022/12/29 01:15:54;;;;;;;0.90;0.60;;;11.40;99.90;;;;;;5030584;28;20075;-61
2022/12/29 01:18:20;;;;;;;0.77;0.60;;;11.40;99.90;;;;;;5020548;28;20528;-61
2022/12/29 01:20:46;;;;;;;0.75;0.52;;;11.50;99.90;;;;;;5016328;28;20694;-61
2022/12/29 01:23:12;;;;;;;1.15;0.50;;;11.40;99.90;;;;;;5039153;28;20034;-61
2022/12/29 01:25:37;;;;;;;1.55;0.50;;;11.50;99.90;;;;;;5040150;28;20432;-61
2022/12/29 01:28:03;;;;;;;0.43;0.30;;;11.50;99.90;;;;;;5026302;28;20489;-61
2022/12/29 01:30:29;;;;;;;0.63;0.60;;;11.40;99.90;;;;;;5024163;28;20618;-61
2022/12/29 01:32:54;;;;;;;0.60;0.50;;;11.50;99.90;;;;;;5027684;28;20037;-60
2022/12/29 01:35:20;;;;;;;2.42;1.42;;;11.50;99.90;;;;;;5023485;28;20068;-60
2022/12/29 01:37:45;;;;;;;1.88;1.30;;;11.50;99.90;;;;;;5023860;28;20381;-60
2022/12/29 01:40:11;;;;;;;2.47;1.52;;;11.60;99.90;;;;;;5027060;28;20079;-60
2022/12/29 01:42:37;;;;;;;0.60;0.60;;;11.60;99.90;;;;;;5030564;28;20133;-60
2022/12/29 01:45:09;;;;;;;1.30;0.60;;;11.60;99.90;;;;;;5031484;28;20543;-60
2022/12/29 01:47:43;;;;;;;1.35;1.13;;;11.60;99.90;;;;;;5026182;28;20029;-60
2022/12/29 01:50:16;;;;;;;1.35;0.63;;;11.60;99.90;;;;;;5043213;28;20040;-60
2022/12/29 01:52:55;;;;;;;1.38;1.10;;;11.60;99.90;;;;;;5045133;28;20033;-60
2022/12/29 01:55:21;;;;;;;1.17;0.60;;;11.70;99.90;;;;;;5033708;28;20029;-61
2022/12/29 01:57:50;;;;;;;1.00;0.43;;;11.60;99.90;;;;;;5043101;28;20494;-60
2022/12/29 02:00:16;;;;;;;0.70;0.50;;;11.60;99.90;;;;;;5039939;28;20037;-60
2022/12/29 02:02:46;;;;;;;1.20;0.60;;;11.60;99.90;;;;;;5045208;28;20044;-60
2022/12/29 02:05:23;;;;;;;0.52;0.43;;;11.60;99.90;;;;;;5040641;28;20678;-60
2022/12/29 02:07:50;;;;;;;1.17;0.70;;;11.60;99.90;;;;;;5044940;28;20622;-60
2022/12/29 02:10:15;;;;;;;1.25;0.60;;;11.70;99.90;;;;;;5039702;28;20061;-60
2022/12/29 02:12:41;;;;;;;0.80;0.43;;;11.70;99.90;;;;;;5044066;28;20041;-60
2022/12/29 02:15:07;;;;;;;1.33;0.60;;;11.70;99.90;;;;;;5044771;28;21315;-61
2022/12/29 02:18:04;;;;;;;4.03;0.70;;;11.60;99.90;;;;;;5045220;28;20055;-61
2022/12/29 02:20:54;;;;;;;2.55;0.70;;;11.60;99.90;;;;;;5038749;28;20032;-60
2022/12/29 02:23:37;;;;;;;2.85;0.50;;;11.60;99.90;;;;;;5041486;28;20091;-61
2022/12/29 02:26:06;;;;;;;1.90;0.82;;;11.60;99.90;;;;;;5043426;28;20518;-61
2022/12/29 02:29:02;;;;;;;2.25;0.80;;;11.60;99.90;;;;;;5045158;28;20417;-60
2022/12/29 02:31:41;;;;;;;0.65;0.52;;;11.60;99.90;;;;;;5038240;28;20033;-60
2022/12/29 02:34:12;;;;;;;1.98;0.60;;;11.60;99.90;;;;;;5047389;28;21986;-60
2022/12/29 02:37:09;;;;;;;2.00;0.68;;;11.50;99.90;;;;;;5042683;28;20505;-60
2022/12/29 02:39:40;;;;;;;1.50;0.70;;;11.60;99.90;;;;;;5043270;28;20120;-60
2022/12/29 02:42:47;;;;;;;2.10;0.90;;;11.60;99.90;;;;;;5049379;28;20503;-61
2022/12/29 02:45:20;;;;;;;2.83;0.80;;;11.50;99.90;;;;;;5023977;28;20477;-60
2022/12/29 02:47:56;;;;;;;3.28;1.08;;;11.60;99.90;;;;;;5051533;28;20376;-60
2022/12/29 02:50:43;;;;;;;2.38;0.82;;;11.60;99.90;;;;;;5046756;28;20045;-61
2022/12/29 02:53:15;;;;;;;3.65;0.82;;;11.70;99.90;;;;;;5050813;28;20029;-60
2022/12/29 02:55:51;;;;;;;2.58;0.80;;;11.60;99.90;;;;;;5049719;28;20037;-60
2022/12/29 02:58:19;;;;;;;2.38;0.80;;;11.70;99.90;;;;;;5047911;28;20029;-60
2022/12/29 03:00:54;;;;;;;1.10;0.68;;;11.70;99.90;;;;;;5050878;28;20121;-60
2022/12/29 03:03:47;;;;;;;4.05;0.95;;;11.70;99.90;;;;;;5044024;28;20033;-60
2022/12/29 03:06:21;;;;;;;2.10;0.60;;;11.70;99.90;;;;;;5043255;28;20040;-60
2022/12/29 03:09:20;;;;;;;1.25;0.77;;;11.70;99.90;;;;;;5051354;28;20482;-61
2022/12/29 03:12:11;;;;;;;3.47;0.90;;;11.60;99.90;;;;;;5050183;28;20040;-60
2022/12/29 03:18:01;;;;;;;1.20;0.60;;;11.70;99.90;;;;;;5047580;28;20116;-61
2022/12/29 03:20:41;;;;;;;1.33;0.88;;;11.70;99.90;;;;;;5024735;28;20033;-60
2022/12/29 03:23:07;;;;;;;2.95;0.85;;;11.70;99.90;;;;;;5035537;28;20036;-60
2022/12/29 03:25:41;;;;;;;1.23;0.70;;;11.70;99.90;;;;;;5049936;28;20029;-60
2022/12/29 03:28:13;;;;;;;3.38;0.77;;;11.70;99.90;;;;;;5050359;28;20695;-61
2022/12/29 03:30:40;;;;;;;3.25;0.80;;;11.70;99.90;;;;;;5049713;28;20534;-60
2022/12/29 03:33:12;;;;;;;1.58;0.70;;;11.70;99.90;;;;;;5050483;28;20035;-61
2022/12/29 03:35:40;;;;;;;3.13;1.05;;;11.70;99.90;;;;;;5051081;28;20033;-60
2022/12/29 03:38:14;;;;;;;0.95;0.40;;;11.70;99.90;;;;;;5049883;28;20442;-60
2022/12/29 03:40:45;;;;;;;0.95;0.55;;;11.70;99.90;;;;;;5052181;28;20033;-60
2022/12/29 03:43:12;;;;;;;2.63;0.75;;;11.70;99.90;;;;;;5050773;28;20697;-60
2022/12/29 03:45:38;;;;;;;1.33;0.60;;;11.70;99.90;;;;;;5043048;28;20128;-60
2022/12/29 03:48:04;;;;;;;1.00;0.50;;;11.70;99.90;;;;;;5024557;28;20164;-60
2022/12/29 03:50:30;;;;;;;0.85;0.50;;;11.70;99.90;;;;;;5046611;28;20566;-60
2022/12/29 03:52:55;;;;;;;0.95;0.50;;;11.70;99.90;;;;;;5047234;28;20043;-59
2022/12/29 03:55:21;;;;;;;1.23;0.65;;;11.70;99.90;;;;;;5045983;28;20621;-60
2022/12/29 03:57:47;;;;;;;2.22;0.80;;;11.70;99.90;;;;;;5047567;28;20633;-60
2022/12/29 04:00:13;;;;;;;1.75;0.60;;;11.70;99.90;;;;;;5042566;28;20029;-60
2022/12/29 04:02:38;;;;;;;1.85;0.70;;;11.60;99.90;;;;;;5047121;28;20043;-60
2022/12/29 04:05:04;;;;;;;1.27;0.60;;;11.60;99.90;;;;;;5046909;28;20381;-60
2022/12/29 04:07:30;;;;;;;1.70;0.50;;;11.70;99.90;;;;;;5046646;28;20048;-60
2022/12/29 04:09:55;;;;;;;1.15;0.60;;;11.60;99.90;;;;;;5044618;28;20037;-60
2022/12/29 04:12:21;;;;;;;1.17;0.60;;;11.70;99.90;;;;;;5046412;28;20033;-60
2022/12/29 04:14:46;;;;;;;1.25;0.50;;;11.70;99.90;;;;;;5043590;28;20025;-60
2022/12/29 04:17:12;;;;;;;0.77;0.50;;;11.70;99.90;;;;;;5046284;28;20039;-60
2022/12/29 04:19:38;;;;;;;1.35;0.80;;;11.60;99.90;;;;;;5021689;28;20121;-61
2022/12/29 04:22:03;;;;;;;2.60;0.65;;;11.70;99.90;;;;;;5025172;28;20554;-61
2022/12/29 04:24:29;;;;;;;1.75;0.65;;;11.80;99.90;;;;;;5004119;28;20524;-60
2022/12/29 04:26:54;;;;;;;1.13;0.50;;;11.80;99.90;;;;;;5017907;28;20064;-60
2022/12/29 04:29:20;;;;;;;2.00;0.70;;;11.80;99.90;;;;;;5046138;28;20029;-59
2022/12/29 04:31:45;;;;;;;2.65;0.70;;;11.90;99.90;;;;;;5047111;28;20106;-60
2022/12/29 04:34:11;;;;;;;2.90;0.85;;;11.90;99.90;;;;;;5047693;28;20431;-60
2022/12/29 04:36:37;;;;;;;1.50;0.70;;;11.90;99.90;;;;;;5046215;28;20124;-60
2022/12/29 04:39:04;;;;;;;1.45;0.50;;;11.90;99.90;;;;;;5046222;28;20036;-60
2022/12/29 04:41:30;;;;;;;0.82;0.63;;;11.90;99.90;;;;;;5027752;28;20028;-60
2022/12/29 04:43:56;;;;;;;1.42;0.50;;;11.90;99.90;;;;;;5046614;28;20036;-60
2022/12/29 04:46:21;;;;;;;1.95;0.70;;;11.90;99.90;;;;;;5048835;28;20129;-60
2022/12/29 04:48:47;;;;;;;1.88;0.63;;;11.90;99.90;;;;;;5047062;28;20388;-60
2022/12/29 04:51:12;;;;;;;1.30;0.50;;;11.90;99.90;;;;;;5041400;28;20721;-61
2022/12/29 04:53:38;;;;;;;1.23;0.65;;;11.90;99.90;;;;;;5047019;28;20056;-60
2022/12/29 04:56:04;;;;;;;1.50;0.60;;;11.90;99.90;;;;;;5045065;28;20040;-60
2022/12/29 04:58:29;;;;;;;1.90;0.60;;;11.90;99.90;;;;;;5042721;28;20550;-60
2022/12/29 05:00:55;;;;;;;3.20;0.60;;;12.00;99.90;;;;;;5045440;28;20112;-60
2022/12/29 05:03:21;;;;;;;2.30;0.68;;;11.90;99.90;;;;;;5026131;28;20053;-60
2022/12/29 05:05:46;;;;;;;3.88;0.68;;;11.90;99.90;;;;;;5046489;28;20063;-60
2022/12/29 05:08:12;;;;;;;2.75;0.73;;;12.00;99.90;;;;;;5044926;28;20037;-60
2022/12/29 05:10:37;;;;;;;1.95;0.50;;;12.00;99.90;;;;;;5045087;28;20029;-60
2022/12/29 05:13:03;;;;;;;1.67;0.77;;;12.00;99.90;;;;;;5046528;28;20029;-60
2022/12/29 05:15:28;;;;;;;2.30;0.77;;;11.90;99.90;;;;;;5050117;28;20033;-60
2022/12/29 05:17:54;;;;;;;1.77;0.60;;;11.90;99.90;;;;;;5045543;28;20037;-60
2022/12/29 05:20:20;;;;;;;1.77;0.63;;;11.90;99.90;;;;;;5044564;28;20037;-60
2022/12/29 05:22:45;;;;;;;3.28;0.70;;;11.90;99.90;;;;;;5043400;28;20071;-60
2022/12/29 05:25:11;;;;;;;3.63;0.57;;;11.90;99.90;;;;;;5044910;28;20059;-60
2022/12/29 05:27:37;;;;;;;4.82;0.70;;;11.90;99.90;;;;;;5045813;28;20636;-60
2022/12/29 05:30:03;;;;;;;2.00;0.43;;;11.80;99.90;;;;;;5044194;28;20048;-60
2022/12/29 05:32:28;;;;;;;2.15;0.50;;;11.80;99.90;;;;;;5045984;28;20040;-59
2022/12/29 05:34:54;;;;;;;2.70;0.70;;;11.70;99.90;;;;;;5042750;28;20033;-60
2022/12/29 05:37:19;;;;;;;2.75;0.60;;;11.70;99.90;;;;;;5044574;28;20095;-61
2022/12/29 05:39:45;;;;;;;4.18;0.70;;;11.70;99.90;;;;;;5044059;28;20371;-60
2022/12/29 05:42:10;;;;;;;4.57;0.70;;;11.70;99.90;;;;;;5042828;28;20075;-61
2022/12/29 05:44:36;;;;;;;2.30;0.65;;;11.60;99.90;;;;;;5045454;28;20067;-60
2022/12/29 05:47:02;;;;;;;1.58;0.70;;;11.50;99.90;;;;;;5044360;28;20040;-60
2022/12/29 05:49:27;;;;;;;3.38;0.80;;;11.50;99.90;;;;;;5045587;28;20102;-60
2022/12/29 05:51:53;;;;;;;4.10;0.50;;;11.40;99.90;;;;;;5044914;28;20391;-60
2022/12/29 05:54:18;;;;;;;2.08;1.00;;;11.40;99.90;;;;;;5045237;28;20094;-61
2022/12/29 05:56:44;;;;;;;2.63;0.60;;;11.40;99.90;;;;;;5044390;28;20033;-61
2022/12/29 05:59:09;;;;;;;5.20;0.90;;;11.30;99.90;;;;;;5014210;28;20033;-61
2022/12/29 06:01:35;;;;;;;3.47;0.85;;;11.40;99.90;;;;;;5027380;28;20464;-61
2022/12/29 06:04:00;;;;;;;2.58;0.70;;;11.20;99.90;;;;;;5018077;28;20072;-60
2022/12/29 06:06:26;;;;;;;2.97;1.00;;;11.30;99.90;;;;;;5016008;28;20064;-60
2022/12/29 06:08:52;;;;;;;4.47;1.35;;;11.20;99.90;;;;;;5016994;28;20061;-61
2022/12/29 06:11:17;;;;;;;4.05;1.20;;;11.20;99.90;;;;;;5037695;28;20029;-60
2022/12/29 06:13:43;;;;;;;2.38;0.90;;;11.20;99.90;;;;;;5044396;28;20044;-60
2022/12/29 06:16:08;;;;;;;2.60;0.75;;;11.20;99.90;;;;;;5043869;28;20452;-61
2022/12/29 06:18:34;;;;;;;1.40;0.60;;;11.30;99.90;;;;;;5045125;28;20091;-60
2022/12/29 06:21:01;;;;;;;3.60;0.70;;;11.30;99.90;;;;;;5044283;28;20033;-60
2022/12/29 06:23:27;;;;;;;2.78;0.90;;;11.30;99.90;;;;;;5044752;28;20104;-61
2022/12/29 06:25:52;;;;;;;3.80;0.68;;;11.40;99.90;;;;;;5043244;28;20029;-60
2022/12/29 06:28:18;;;;;;;2.17;0.65;;;11.40;99.90;;;;;;5043918;28;20349;-60
2022/12/29 06:30:47;;;;;;;3.65;0.93;;;11.50;99.90;;;;;;5040352;28;20052;-61
2022/12/29 06:33:13;;;;;;;2.72;0.70;;;11.40;99.90;;;;;;5044430;28;20033;-60
2022/12/29 06:35:39;;;;;;;2.20;0.80;;;11.40;99.90;;;;;;5041770;28;20098;-61
2022/12/29 06:38:05;;;;;;;3.17;1.00;;;11.40;99.90;;;;;;5042672;28;20483;-61
2022/12/29 06:40:31;;;;;;;4.03;0.80;;;11.40;99.90;;;;;;5041787;28;20033;-61
2022/12/29 06:42:56;;;;;;;2.60;0.70;;;11.40;99.90;;;;;;5044874;28;20056;-60
2022/12/29 06:45:22;;;;;;;1.63;0.73;;;11.40;99.90;;;;;;5044563;28;20033;-60
2022/12/29 06:47:48;;;;;;;2.88;0.70;;;11.40;99.90;;;;;;5041652;28;20037;-60
2022/12/29 06:50:13;;;;;;;2.50;0.70;;;11.30;99.90;;;;;;5043747;28;20029;-60
2022/12/29 06:52:39;;;;;;;3.10;1.10;;;11.40;99.90;;;;;;5043307;28;20029;-61
2022/12/29 06:55:04;;;;;;;3.67;0.90;;;11.40;99.90;;;;;;5039852;28;20559;-61
2022/12/29 06:57:30;;;;;;;4.65;1.08;;;11.40;99.90;;;;;;5044119;28;20056;-61
2022/12/29 06:59:56;;;;;;;3.38;0.88;;;11.50;99.90;;;;;;5043634;28;20047;-60
2022/12/29 07:02:22;;;;;;;2.15;0.68;;;11.50;99.90;;;;;;5044233;28;20052;-60
2022/12/29 07:04:47;;;;;;;4.15;0.80;;;11.50;99.90;;;;;;5044832;28;20528;-60
2022/12/29 07:07:13;;;;;;;3.75;1.08;;;11.50;99.90;;;;;;5041395;28;20057;-60
2022/12/29 07:09:39;;;;;;;5.13;0.95;;;11.60;99.90;;;;;;5042640;28;20033;-60
2022/12/29 07:12:04;;;;;;;6.32;0.90;;;11.50;99.90;;;;;;5041600;28;20036;-60
2022/12/29 07:14:30;;;;;;;8.45;1.17;;;11.50;99.90;;;;;;5022622;28;20033;-61
2022/12/29 07:16:55;;;;;;;6.35;1.30;;;11.60;99.90;;;;;;5017805;28;20034;-60
2022/12/29 07:19:21;;;;;;;4.60;1.35;;;11.50;99.90;;;;;;5014338;28;20033;-60
2022/12/29 07:21:47;;;;;;;4.93;1.20;;;11.50;99.90;;;;;;5017151;28;20053;-61
2022/12/29 07:24:12;;;;;;;4.60;1.00;;;11.50;99.90;;;;;;5019368;28;20392;-60
2022/12/29 07:26:38;;;;;;;3.88;0.98;;;11.40;99.90;;;;;;5024261;28;20172;-61
2022/12/29 07:29:04;;;;;;;8.50;1.25;;;11.50;99.90;;;;;;5020820;28;20038;-60
2022/12/29 07:31:29;;;;;;;4.25;1.23;;;11.40;99.90;;;;;;5030209;28;20048;-60
2022/12/29 07:33:55;;;;;;;4.68;0.95;;;11.40;99.90;;;;;;5040886;28;20042;-60
2022/12/29 07:36:21;;;;;;;7.57;1.23;;;11.50;99.90;;;;;;5047265;28;20037;-61
2022/12/29 07:38:46;;;;;;;4.55;1.00;;;11.50;99.90;;;;;;5047914;28;20029;-61
2022/12/29 07:41:12;;;;;;;5.82;1.30;;;11.50;99.90;;;;;;5049878;28;20086;-60
2022/12/29 07:43:37;;;;;;;6.53;1.13;;;11.50;99.90;;;;;;5048651;28;20551;-61
2022/12/29 07:46:03;;;;;;;5.78;1.10;;;11.50;99.90;;;;;;5048247;28;20037;-60
2022/12/29 07:48:29;;;;;;;6.18;1.30;;;11.50;99.90;;;;;;5048171;28;20051;-60
2022/12/29 07:50:54;;;;;;;5.43;1.00;;;11.50;99.90;;;;;;5047196;28;20048;-60
2022/12/29 07:53:20;;;;;;;5.07;1.17;;;11.40;99.90;;;;;;5044266;28;20037;-61
2022/12/29 07:55:46;;;;;;;6.90;1.40;;;11.40;99.90;;;;;;5041323;28;20029;-60
2022/12/29 07:58:11;;;;;;;8.43;1.27;;;11.40;99.90;;;;;;5046844;28;20040;-60
2022/12/29 08:00:38;;;;;;;7.38;1.60;;;11.40;99.90;;;;;;5047043;28;20426;-61
2022/12/29 08:03:04;;;;;;;7.95;1.50;;;11.30;99.90;;;;;;5042225;28;20404;-60
2022/12/29 08:05:34;;;;;;;5.65;1.08;;;11.40;99.90;;;;;;5044141;28;20040;-60
2022/12/29 08:07:59;;;;;;;4.97;1.00;;;11.30;99.90;;;;;;5041377;28;20033;-60
2022/12/29 08:10:25;;;;;;;6.28;1.38;;;11.30;99.90;;;;;;5044795;28;20039;-61
2022/12/29 08:12:51;;;;;;;4.28;1.15;;;11.30;99.90;;;;;;5047755;28;20025;-61
2022/12/29 08:15:16;;;;;;;5.32;1.15;;;11.30;99.90;;;;;;5043231;28;20036;-60
2022/12/29 08:17:42;;;;;;;5.43;1.20;;;11.30;99.90;;;;;;5047004;28;20715;-60
2022/12/29 08:20:08;;;;;;;6.68;1.08;;;11.40;99.90;;;;;;5045960;28;20041;-60
2022/12/29 08:22:35;;;;;;;6.45;1.38;;;11.40;99.90;;;;;;5043708;28;20063;-60
2022/12/29 08:25:00;;;;;;;4.65;0.90;;;11.40;99.90;;;;;;5045198;28;20488;-61
2022/12/29 08:27:26;;;;;;;6.82;1.75;;;11.40;99.90;;;;;;5046655;28;20029;-60
2022/12/29 08:29:52;;;;;;;4.95;1.15;;;11.40;99.90;;;;;;5046728;28;20028;-60
2022/12/29 08:32:17;;;;;;;4.97;1.30;;;11.40;99.90;;;;;;5045477;28;20479;-61
2022/12/29 08:34:43;;;;;;;5.25;1.15;;;11.40;99.90;;;;;;5046822;28;20025;-60
2022/12/29 08:37:08;;;;;;;8.70;1.52;;;11.40;99.90;;;;;;5046033;28;20466;-60
2022/12/29 08:39:34;;;;;;;6.05;1.33;;;11.40;99.90;;;;;;5043617;28;20620;-61
2022/12/29 08:42:00;;;;;;;9.15;1.30;;;11.40;99.90;;;;;;5044286;28;20052;-60
2022/12/29 08:44:25;;;;;;;4.90;1.05;;;11.40;99.90;;;;;;5045747;28;20025;-61
2022/12/29 08:46:51;;;;;;;6.20;1.33;;;11.40;99.90;;;;;;5041767;28;20032;-60
2022/12/29 08:49:16;;;;;;;4.10;1.17;;;11.30;99.90;;;;;;5045211;28;20396;-60
2022/12/29 08:51:42;;;;;;;7.05;1.20;;;11.30;99.90;;;;;;5056086;28;20481;-60
2022/12/29 08:54:07;;;;;;;8.02;1.58;;;11.20;99.90;;;;;;5049985;28;20037;-61
2022/12/29 08:56:33;;;;;;;6.45;1.20;;;11.20;99.90;;;;;;5046416;28;20033;-60
2022/12/29 08:58:58;;;;;;;5.32;1.52;;;11.20;99.90;;;;;;5051148;28;20047;-61
2022/12/29 09:01:24;;;;;;;5.97;1.20;;;11.20;99.90;;;;;;5055384;28;20028;-60
2022/12/29 09:03:50;;;;;;;6.35;1.45;;;11.20;99.90;;;;;;5049486;28;20396;-60
2022/12/29 09:06:17;;;;;;;7.63;1.42;;;11.10;99.90;;;;;;5042970;28;20048;-61
2022/12/29 09:08:43;;;;;;;5.40;1.02;;;11.10;99.90;;;;;;5044963;28;20039;-60
2022/12/29 09:11:23;;;;;;;3.88;0.90;;;11.20;99.90;;;;;;5043767;28;20385;-60
2022/12/29 09:13:48;;;;;;;6.55;1.23;;;11.20;99.90;;;;;;5043004;28;20515;-61
2022/12/29 09:16:15;;;;;;;6.70;1.17;;;11.30;99.90;;;;;;5043184;28;20040;-61
2022/12/29 09:18:41;;;;;;;4.32;1.13;;;11.30;99.90;;;;;;5046477;28;20152;-60
2022/12/29 09:21:07;;;;;;;8.75;1.90;;;11.30;99.90;;;;;;5043853;28;20056;-60
2022/12/29 09:23:33;;;;;;;6.30;1.33;;;11.30;99.90;;;;;;5046583;28;20033;-61
2022/12/29 09:25:59;;;;;;;8.50;1.38;;;11.30;99.90;;;;;;5044499;28;20065;-61
2022/12/29 09:28:25;;;;;;;5.88;1.27;;;11.30;99.90;;;;;;5040966;28;20068;-60
2022/12/29 09:30:51;;;;;;;6.13;1.63;;;11.30;99.90;;;;;;5043780;28;20037;-61
2022/12/29 09:33:17;;;;;;;7.63;1.52;;;11.20;99.90;;;;;;5045417;28;20039;-60
2022/12/29 09:35:44;;;;;;;9.73;1.42;;;11.30;99.90;;;;;;5021709;28;20034;-60
2022/12/29 09:38:09;;;;;;;7.30;1.40;;;11.30;99.90;;;;;;5026374;28;20085;-62
2022/12/29 09:40:35;;;;;;;6.00;1.30;;;11.30;99.90;;;;;;5019018;28;20029;-61
2022/12/29 09:43:36;;;;;;;11.15;1.80;;;11.30;99.90;;;;;;5009543;28;20060;-60
2022/12/29 09:46:19;;;;;;;6.07;1.48;;;11.30;99.90;;;;;;4976703;28;20089;-61
2022/12/29 09:48:52;;;;;;;8.18;1.88;;;11.30;99.90;;;;;;5039831;28;20056;-61
2022/12/29 09:51:23;;;;;;;8.68;1.50;;;11.30;99.90;;;;;;5031494;28;20045;-60
2022/12/29 09:53:58;;;;;;;6.90;1.25;;;11.30;99.90;;;;;;5022690;28;20037;-61
2022/12/29 09:56:26;;;;;;;7.43;1.80;;;11.30;99.90;;;;;;5040265;28;20037;-61
2022/12/29 09:59:17;;;;;;;8.02;1.48;;;11.30;99.90;;;;;;5042762;28;20040;-60
2022/12/29 10:01:59;;;;;;;7.75;1.67;;;11.30;99.90;;;;;;5036080;28;20033;-61
2022/12/29 10:04:28;;;;;;;5.45;1.40;;;11.30;99.90;;;;;;5044049;28;20072;-60
2022/12/29 10:07:32;;;;;;;6.97;1.70;;;11.30;99.90;;;;;;5044690;28;20037;-61
2022/12/29 10:10:00;;;;;;;;;;;11.30;99.90;;;;;;5040779;28;20120;-60
2022/12/29 10:12:34;;;;;;;8.15;1.60;;;11.20;99.90;;;;;;5042207;28;20580;-60
2022/12/29 10:15:18;;;;;;;;;;;11.20;99.90;;;;;;5044604;28;20036;-61
2022/12/29 10:18:16;;;;;;;6.78;1.33;;;11.20;99.90;;;;;;5042850;28;19913;-60
2022/12/29 10:20:55;;;;;;;10.05;1.63;;;11.30;99.90;;;;;;5042039;28;20037;-61
2022/12/29 10:23:30;;;;;;;7.55;1.50;;;11.30;99.90;;;;;;5035511;28;20040;-60
2022/12/29 10:25:57;;;;;;;6.75;1.50;;;11.30;99.90;;;;;;5044290;28;20139;-60
2022/12/29 10:28:40;;;;;;;10.32;1.40;;;11.30;99.90;;;;;;5046374;28;20024;-61
2022/12/29 10:31:20;;;;;;;8.52;1.17;;;11.30;99.90;;;;;;5038834;28;20029;-62
2022/12/29 10:33:51;;;;;;;7.22;1.45;;;11.40;99.90;;;;;;5044206;28;20254;-62
2022/12/29 10:36:20;;;;;;;9.15;1.60;;;11.40;99.90;;;;;;5039593;28;20496;-62
2022/12/29 10:39:20;;;;;;;10.45;1.77;;;11.40;99.90;;;;;;5038733;28;20106;-62
2022/12/29 10:41:52;;;;;;;8.07;1.60;;;11.40;99.90;;;;;;5023122;28;20033;-62
2022/12/29 10:44:20;;;;;;;10.75;1.80;;;11.40;99.90;;;;;;5044041;28;20029;-61
2022/12/29 10:46:55;;;;;;;9.30;1.85;;;11.40;99.90;;;;;;5021105;28;20041;-61
2022/12/29 10:49:21;;;;;;;10.55;1.77;;;11.40;99.90;;;;;;5047583;28;20045;-62
2022/12/29 10:51:48;;;;;;;7.10;1.17;;;11.40;99.90;;;;;;5044482;28;20044;-61
2022/12/29 10:54:21;;;;;;;8.43;1.67;;;11.40;99.90;;;;;;5042110;28;20258;-60
2022/12/29 10:56:54;;;;;;;9.20;1.35;;;11.40;99.90;;;;;;5040908;28;20029;-60
2022/12/29 10:59:25;;;;;;;8.93;1.83;;;11.40;99.90;;;;;;5037903;28;20479;-61
2022/12/29 11:02:09;;;;;;;9.18;1.67;;;11.40;99.90;;;;;;5046147;28;20037;-61
2022/12/29 11:04:49;;;;;;;;;;;11.50;99.90;;;;;;5045616;28;20415;-60
2022/12/29 11:07:18;;;;;;;9.45;1.45;;;11.50;99.90;;;;;;5017066;28;19913;-61
2022/12/29 11:09:45;;;;;;;5.80;1.33;;;11.50;99.90;;;;;;5011446;28;20034;-61
2022/12/29 11:12:26;;;;;;;9.18;1.60;;;11.50;99.90;;;;;;5022361;28;20037;-62
2022/12/29 11:15:09;;;;;;;7.72;1.48;;;11.50;99.90;;;;;;5012120;28;20057;-61
2022/12/29 11:17:48;;;;;;;10.38;2.00;;;11.50;99.90;;;;;;5035577;28;20045;-61
2022/12/29 11:20:37;;;;;;;10.27;1.77;;;11.50;99.90;;;;;;5041113;28;20552;-61
2022/12/29 11:23:04;;;;;;;8.00;1.67;;;11.50;99.90;;;;;;5045480;28;20027;-61
2022/12/29 11:25:30;;;;;;;7.00;1.80;;;11.50;99.90;;;;;;5046916;28;20048;-60
2022/12/29 11:28:13;;;;;;;9.20;1.63;;;11.50;99.90;;;;;;5030021;28;20025;-61
2022/12/29 11:30:39;;;;;;;6.23;1.47;;;11.50;99.90;;;;;;5043686;28;20049;-61
2022/12/29 11:33:04;;;;;;;10.68;1.38;;;11.60;99.90;;;;;;5045428;28;20369;-60
2022/12/29 11:35:48;;;;;;;10.10;1.60;;;11.60;99.90;;;;;;5043088;28;20045;-60
2022/12/29 11:38:28;;;;;;;9.07;1.77;;;11.60;99.90;;;;;;5043346;28;20059;-61
2022/12/29 11:40:54;;;;;;;10.35;1.33;;;11.60;99.90;;;;;;5045090;28;20036;-60
2022/12/29 11:43:38;;;;;;;9.10;1.63;;;11.60;99.90;;;;;;5026889;28;20037;-61
2022/12/29 11:46:05;;;;;;;12.85;1.83;;;11.60;99.90;;;;;;5044903;28;20107;-61
2022/12/29 11:48:42;;;;;;;9.95;1.50;;;11.60;99.90;;;;;;5047531;28;20036;-61
2022/12/29 11:51:09;;;;;;;8.48;1.90;;;11.60;99.90;;;;;;5039554;28;20041;-60
2022/12/29 11:53:42;;;;;;;7.25;1.67;;;11.60;99.90;;;;;;5045178;28;20033;-61
2022/12/29 11:56:16;;;;;;;5.80;1.55;;;11.60;99.90;;;;;;5045233;28;20036;-61
2022/12/29 11:58:43;;;;;;;8.27;1.27;;;11.60;99.90;;;;;;5047332;28;20039;-60
2022/12/29 12:01:27;;;;;;;7.85;1.40;;;11.60;99.90;;;;;;5046320;28;20187;-60
2022/12/29 12:04:15;;;;;;;7.55;1.45;;;11.60;99.90;;;;;;5046767;28;20025;-60
2022/12/29 12:07:14;;;;;;;6.88;1.52;;;11.50;99.90;;;;;;5045122;28;20029;-61
2022/12/29 12:09:48;;;;;;;7.35;1.55;;;11.50;99.90;;;;;;5032994;28;20053;-62
2022/12/29 12:12:28;;;;;;;8.07;1.45;;;11.60;99.90;;;;;;5042644;28;20029;-60
2022/12/29 12:14:59;;;;;;;11.40;1.50;;;11.60;99.90;;;;;;5026854;28;20048;-61
2022/12/29 12:18:17;;;;;;;10.25;1.77;;;11.60;99.90;;;;;;5045986;28;20520;-62
2022/12/29 12:21:12;;;;;;;8.65;1.70;;;11.60;99.90;;;;;;5010225;28;20033;-60
2022/12/29 12:23:55;;;;;;;9.43;1.77;;;11.50;99.90;;;;;;5042772;28;20504;-61
2022/12/29 12:26:36;;;;;;;10.38;1.77;;;11.50;99.90;;;;;;5021602;28;21241;-60
2022/12/29 12:29:25;;;;;;;10.48;1.40;;;11.50;99.90;;;;;;5044435;28;20033;-61
2022/12/29 12:32:13;;;;;;;10.68;1.85;;;11.60;99.90;;;;;;5043401;28;20064;-61
2022/12/29 12:34:42;;;;;;;8.63;1.73;;;11.60;99.90;;;;;;5013974;28;20044;-61
2022/12/29 12:37:31;;;;;;;7.65;1.50;;;11.60;99.90;;;;;;5041334;28;20576;-60
2022/12/29 12:40:29;;;;;;;9.63;2.05;;;11.60;99.90;;;;;;5041087;28;20510;-59
2022/12/29 12:43:16;;;;;;;7.30;1.60;;;11.60;99.90;;;;;;5043879;28;20112;-59
2022/12/29 12:45:50;;;;;;;9.07;1.67;;;11.70;99.90;;;;;;5042538;28;20195;-60
2022/12/29 12:48:45;;;;;;;9.75;2.08;;;11.60;99.90;;;;;;5041172;28;20357;-59
2022/12/29 12:51:13;;;;;;;6.22;1.48;;;11.60;99.90;;;;;;5044894;28;20726;-59
2022/12/29 12:54:12;;;;;;;10.38;1.70;;;11.60;99.90;;;;;;5046625;28;20124;-61
2022/12/29 12:57:03;;;;;;;8.27;1.67;;;11.70;99.90;;;;;;5021228;28;20044;-62
2022/12/29 12:59:52;;;;;;;9.85;1.88;;;11.70;99.90;;;;;;5044299;28;20039;-62
2022/12/29 13:02:20;;;;;;;8.98;1.45;;;11.60;99.90;;;;;;5044073;28;20045;-61
2022/12/29 13:05:04;;;;;;;6.97;1.60;;;11.60;99.90;;;;;;5042790;28;20037;-60
2022/12/29 13:07:51;;;;;;;10.57;1.75;;;11.60;99.90;;;;;;5045315;28;20036;-61
2022/12/29 13:10:40;;;;;;;6.28;1.67;;;11.50;99.90;;;;;;5036535;28;20043;-60
2022/12/29 13:13:24;;;;;;;9.25;1.90;;;11.50;99.90;;;;;;5044531;28;20437;-61
2022/12/29 13:15:59;;;;;;;7.00;1.50;;;11.50;99.90;;;;;;5040453;28;20067;-62
2022/12/29 13:18:44;;;;;;;9.77;1.73;;;11.60;99.90;;;;;;5044748;28;20118;-60
2022/12/29 13:21:45;;;;;;;9.25;1.88;;;11.60;99.90;;;;;;5043579;28;20550;-60
2022/12/29 13:24:47;;;;;;;9.35;1.85;;;11.60;99.90;;;;;;5045188;28;20368;-60
2022/12/29 13:27:21;;;;;;;9.15;1.60;;;11.50;99.90;;;;;;5011370;28;20063;-60
2022/12/29 13:30:02;;;;;;;8.23;1.70;;;11.40;99.90;;;;;;5045115;28;20484;-62
2022/12/29 13:32:46;;;;;;;5.50;1.40;;;11.50;99.90;;;;;;5041627;28;20109;-60
2022/12/29 13:35:27;;;;;;;9.40;1.70;;;11.50;99.90;;;;;;5038036;28;20029;-60
2022/12/29 13:38:03;;;;;;;7.95;1.67;;;11.40;99.90;;;;;;5044192;28;20040;-61
2022/12/29 13:40:34;;;;;;;8.07;1.60;;;11.40;99.90;;;;;;5040391;28;20052;-61